sensor_id;sensor_type;location;lat;lon;timestamp;P1;durP1;ratioP1;P2;durP2;ratioP2
42614;SDS011;28754;47.700;7.924;2022-11-23T00:01:50;2.33;;;0.82;;
42614;SDS011;28754;47.700;7.924;2022-11-23T00:04:37;6.45;;;1.42;;
42614;SDS011;28754;47.700;7.924;2022-11-23T00:07:23;6.63;;;1.75;;
42614;SDS011;28754;47.700;7.924;2022-11-23T00:10:10;9.10;;;1.70;;
42614;SDS011;28754;47.700;7.924;2022-11-23T00:12:57;4.07;;;1.77;;
42614;SDS011;28754;47.700;7.924;2022-11-23T00:15:44;11.05;;;1.80;;
42614;SDS011;28754;47.700;7.924;2022-11-23T00:18:30;2.30;;;1.00;;
42614;SDS011;28754;47.700;7.924;2022-11-23T00:21:17;8.55;;;1.65;;
42614;SDS011;28754;47.700;7.924;2022-11-23T00:24:06;6.13;;;1.00;;
42614;SDS011;28754;47.700;7.924;2022-11-23T00:26:55;2.30;;;1.08;;
42614;SDS011;28754;47.700;7.924;2022-11-23T00:29:41;3.70;;;1.10;;
42614;SDS011;28754;47.700;7.924;2022-11-23T00:32:28;7.43;;;1.42;;
42614;SDS011;28754;47.700;7.924;2022-11-23T00:35:15;5.38;;;0.98;;
42614;SDS011;28754;47.700;7.924;2022-11-23T00:38:02;3.10;;;1.02;;
42614;SDS011;28754;47.700;7.924;2022-11-23T00:40:48;2.83;;;0.90;;
42614;SDS011;28754;47.700;7.924;2022-11-23T00:43:42;3.45;;;1.08;;
42614;SDS011;28754;47.700;7.924;2022-11-23T00:46:29;3.50;;;1.35;;
42614;SDS011;28754;47.700;7.924;2022-11-23T00:49:16;6.03;;;1.15;;
42614;SDS011;28754;47.700;7.924;2022-11-23T00:52:03;6.15;;;1.25;;
42614;SDS011;28754;47.700;7.924;2022-11-23T00:54:50;4.18;;;0.88;;
42614;SDS011;28754;47.700;7.924;2022-11-23T00:57:36;6.60;;;1.15;;
42614;SDS011;28754;47.700;7.924;2022-11-23T01:00:23;2.90;;;1.00;;
42614;SDS011;28754;47.700;7.924;2022-11-23T01:03:10;11.02;;;1.50;;
42614;SDS011;28754;47.700;7.924;2022-11-23T01:06:03;11.55;;;1.65;;
42614;SDS011;28754;47.700;7.924;2022-11-23T01:08:55;3.45;;;1.10;;
42614;SDS011;28754;47.700;7.924;2022-11-23T01:11:44;10.77;;;1.75;;
42614;SDS011;28754;47.700;7.924;2022-11-23T01:14:31;6.55;;;1.58;;
42614;SDS011;28754;47.700;7.924;2022-11-23T01:17:18;4.10;;;1.17;;
42614;SDS011;28754;47.700;7.924;2022-11-23T01:20:05;2.83;;;1.00;;
42614;SDS011;28754;47.700;7.924;2022-11-23T01:22:52;3.20;;;1.15;;
42614;SDS011;28754;47.700;7.924;2022-11-23T01:25:39;4.18;;;1.42;;
42614;SDS011;28754;47.700;7.924;2022-11-23T01:28:26;4.90;;;1.63;;
42614;SDS011;28754;47.700;7.924;2022-11-23T01:31:17;5.10;;;1.33;;
42614;SDS011;28754;47.700;7.924;2022-11-23T01:34:09;6.55;;;2.33;;
42614;SDS011;28754;47.700;7.924;2022-11-23T01:36:59;3.30;;;1.05;;
42614;SDS011;28754;47.700;7.924;2022-11-23T01:39:47;4.63;;;1.70;;
42614;SDS011;28754;47.700;7.924;2022-11-23T01:45:55;6.10;;;1.90;;
42614;SDS011;28754;47.700;7.924;2022-11-23T01:51:38;6.60;;;0.98;;
42614;SDS011;28754;47.700;7.924;2022-11-23T01:54:31;4.72;;;0.88;;
42614;SDS011;28754;47.700;7.924;2022-11-23T01:57:25;12.00;;;1.75;;
42614;SDS011;28754;47.700;7.924;2022-11-23T02:00:20;5.43;;;0.98;;
42614;SDS011;28754;47.700;7.924;2022-11-23T02:03:07;11.20;;;1.55;;
42614;SDS011;28754;47.700;7.924;2022-11-23T02:05:55;9.57;;;1.30;;
42614;SDS011;28754;47.700;7.924;2022-11-23T02:08:48;8.05;;;1.58;;
42614;SDS011;28754;47.700;7.924;2022-11-23T02:11:39;7.85;;;1.13;;
42614;SDS011;28754;47.700;7.924;2022-11-23T02:14:25;3.17;;;1.23;;
42614;SDS011;28754;47.700;7.924;2022-11-23T02:17:13;3.20;;;1.50;;
42614;SDS011;28754;47.700;7.924;2022-11-23T02:20:03;6.10;;;0.95;;
42614;SDS011;28754;47.700;7.924;2022-11-23T02:25:52;7.90;;;1.33;;
42614;SDS011;28754;47.700;7.924;2022-11-23T02:28:49;5.38;;;1.35;;
42614;SDS011;28754;47.700;7.924;2022-11-23T02:31:50;3.28;;;0.98;;
42614;SDS011;28754;47.700;7.924;2022-11-23T02:34:38;5.45;;;1.23;;
42614;SDS011;28754;47.700;7.924;2022-11-23T02:37:25;8.02;;;1.27;;
42614;SDS011;28754;47.700;7.924;2022-11-23T02:40:15;7.80;;;1.50;;
42614;SDS011;28754;47.700;7.924;2022-11-23T02:43:13;7.30;;;1.17;;
42614;SDS011;28754;47.700;7.924;2022-11-23T02:46:00;10.65;;;1.40;;
42614;SDS011;28754;47.700;7.924;2022-11-23T02:48:49;6.38;;;1.05;;
42614;SDS011;28754;47.700;7.924;2022-11-23T02:51:36;7.63;;;1.55;;
42614;SDS011;28754;47.700;7.924;2022-11-23T02:54:22;5.22;;;2.35;;
42614;SDS011;28754;47.700;7.924;2022-11-23T02:57:10;9.45;;;1.98;;
42614;SDS011;28754;47.700;7.924;2022-11-23T02:59:58;8.52;;;1.73;;
42614;SDS011;28754;47.700;7.924;2022-11-23T03:02:45;9.73;;;2.00;;
42614;SDS011;28754;47.700;7.924;2022-11-23T03:05:46;4.45;;;1.95;;
42614;SDS011;28754;47.700;7.924;2022-11-23T03:08:40;3.25;;;1.15;;
42614;SDS011;28754;47.700;7.924;2022-11-23T03:11:27;3.50;;;0.82;;
42614;SDS011;28754;47.700;7.924;2022-11-23T03:14:14;6.10;;;1.42;;
42614;SDS011;28754;47.700;7.924;2022-11-23T03:17:17;8.85;;;1.38;;
42614;SDS011;28754;47.700;7.924;2022-11-23T03:20:05;3.92;;;1.13;;
42614;SDS011;28754;47.700;7.924;2022-11-23T03:22:57;5.47;;;0.90;;
42614;SDS011;28754;47.700;7.924;2022-11-23T03:25:44;7.63;;;1.10;;
42614;SDS011;28754;47.700;7.924;2022-11-23T03:28:33;1.95;;;0.60;;
42614;SDS011;28754;47.700;7.924;2022-11-23T03:31:20;3.72;;;1.10;;
42614;SDS011;28754;47.700;7.924;2022-11-23T03:34:08;5.00;;;1.85;;
42614;SDS011;28754;47.700;7.924;2022-11-23T03:36:56;5.63;;;1.13;;
42614;SDS011;28754;47.700;7.924;2022-11-23T03:39:44;7.50;;;0.90;;
42614;SDS011;28754;47.700;7.924;2022-11-23T03:42:51;4.55;;;1.20;;
42614;SDS011;28754;47.700;7.924;2022-11-23T03:45:38;6.53;;;1.42;;
42614;SDS011;28754;47.700;7.924;2022-11-23T03:48:25;7.78;;;2.03;;
42614;SDS011;28754;47.700;7.924;2022-11-23T03:51:12;6.07;;;1.52;;
42614;SDS011;28754;47.700;7.924;2022-11-23T03:53:59;7.65;;;1.00;;
42614;SDS011;28754;47.700;7.924;2022-11-23T03:56:47;5.80;;;1.33;;
42614;SDS011;28754;47.700;7.924;2022-11-23T03:59:33;10.32;;;2.03;;
42614;SDS011;28754;47.700;7.924;2022-11-23T04:02:20;4.30;;;1.08;;
42614;SDS011;28754;47.700;7.924;2022-11-23T04:05:17;3.85;;;0.88;;
42614;SDS011;28754;47.700;7.924;2022-11-23T04:08:22;9.98;;;1.60;;
42614;SDS011;28754;47.700;7.924;2022-11-23T04:11:10;3.30;;;1.30;;
42614;SDS011;28754;47.700;7.924;2022-11-23T04:14:00;8.45;;;1.67;;
42614;SDS011;28754;47.700;7.924;2022-11-23T04:16:46;3.65;;;1.65;;
42614;SDS011;28754;47.700;7.924;2022-11-23T04:19:33;4.18;;;1.30;;
42614;SDS011;28754;47.700;7.924;2022-11-23T04:22:20;7.05;;;0.90;;
42614;SDS011;28754;47.700;7.924;2022-11-23T04:25:08;4.28;;;1.35;;
42614;SDS011;28754;47.700;7.924;2022-11-23T04:27:55;10.00;;;1.73;;
42614;SDS011;28754;47.700;7.924;2022-11-23T04:30:42;7.70;;;1.30;;
42614;SDS011;28754;47.700;7.924;2022-11-23T04:33:29;10.15;;;2.05;;
42614;SDS011;28754;47.700;7.924;2022-11-23T04:36:17;4.30;;;0.75;;
42614;SDS011;28754;47.700;7.924;2022-11-23T04:39:04;4.90;;;1.48;;
42614;SDS011;28754;47.700;7.924;2022-11-23T04:42:01;6.80;;;1.83;;
42614;SDS011;28754;47.700;7.924;2022-11-23T04:44:49;4.88;;;1.27;;
42614;SDS011;28754;47.700;7.924;2022-11-23T04:47:37;8.65;;;1.30;;
42614;SDS011;28754;47.700;7.924;2022-11-23T04:50:29;8.68;;;3.75;;
42614;SDS011;28754;47.700;7.924;2022-11-23T04:53:17;7.05;;;1.67;;
42614;SDS011;28754;47.700;7.924;2022-11-23T04:56:06;3.00;;;1.45;;
42614;SDS011;28754;47.700;7.924;2022-11-23T04:58:58;6.88;;;1.50;;
42614;SDS011;28754;47.700;7.924;2022-11-23T05:04:55;3.75;;;0.90;;
42614;SDS011;28754;47.700;7.924;2022-11-23T05:07:47;6.97;;;0.95;;
42614;SDS011;28754;47.700;7.924;2022-11-23T05:10:36;10.13;;;1.88;;
42614;SDS011;28754;47.700;7.924;2022-11-23T05:13:24;7.82;;;1.13;;
42614;SDS011;28754;47.700;7.924;2022-11-23T05:16:10;4.35;;;0.70;;
42614;SDS011;28754;47.700;7.924;2022-11-23T05:18:59;6.82;;;1.30;;
42614;SDS011;28754;47.700;7.924;2022-11-23T05:21:45;8.00;;;1.23;;
42614;SDS011;28754;47.700;7.924;2022-11-23T05:24:34;3.50;;;0.70;;
42614;SDS011;28754;47.700;7.924;2022-11-23T05:27:28;5.35;;;1.48;;
42614;SDS011;28754;47.700;7.924;2022-11-23T05:30:15;7.10;;;1.35;;
42614;SDS011;28754;47.700;7.924;2022-11-23T05:33:03;2.15;;;0.85;;
42614;SDS011;28754;47.700;7.924;2022-11-23T05:35:50;6.55;;;1.67;;
42614;SDS011;28754;47.700;7.924;2022-11-23T05:38:44;18.48;;;8.02;;
42614;SDS011;28754;47.700;7.924;2022-11-23T05:41:39;48.70;;;22.73;;
42614;SDS011;28754;47.700;7.924;2022-11-23T05:44:36;18.52;;;9.63;;
42614;SDS011;28754;47.700;7.924;2022-11-23T05:47:25;12.85;;;7.45;;
42614;SDS011;28754;47.700;7.924;2022-11-23T05:50:12;13.20;;;6.15;;
42614;SDS011;28754;47.700;7.924;2022-11-23T05:53:02;8.43;;;4.38;;
42614;SDS011;28754;47.700;7.924;2022-11-23T05:55:50;8.20;;;3.33;;
42614;SDS011;28754;47.700;7.924;2022-11-23T05:58:37;7.65;;;2.63;;
42614;SDS011;28754;47.700;7.924;2022-11-23T06:01:25;7.25;;;3.00;;
42614;SDS011;28754;47.700;7.924;2022-11-23T06:04:15;3.80;;;1.65;;
42614;SDS011;28754;47.700;7.924;2022-11-23T06:07:04;4.03;;;1.20;;
42614;SDS011;28754;47.700;7.924;2022-11-23T06:10:18;5.05;;;1.02;;
42614;SDS011;28754;47.700;7.924;2022-11-23T06:13:07;4.25;;;1.50;;
42614;SDS011;28754;47.700;7.924;2022-11-23T06:15:54;4.15;;;1.65;;
42614;SDS011;28754;47.700;7.924;2022-11-23T06:18:48;9.03;;;1.40;;
42614;SDS011;28754;47.700;7.924;2022-11-23T06:21:35;8.57;;;3.38;;
42614;SDS011;28754;47.700;7.924;2022-11-23T06:24:22;9.40;;;3.72;;
42614;SDS011;28754;47.700;7.924;2022-11-23T06:27:28;6.75;;;2.85;;
42614;SDS011;28754;47.700;7.924;2022-11-23T06:30:15;7.85;;;2.85;;
42614;SDS011;28754;47.700;7.924;2022-11-23T06:33:02;13.63;;;5.88;;
42614;SDS011;28754;47.700;7.924;2022-11-23T06:35:57;7.10;;;2.38;;
42614;SDS011;28754;47.700;7.924;2022-11-23T06:38:51;7.75;;;3.25;;
42614;SDS011;28754;47.700;7.924;2022-11-23T06:41:43;7.72;;;2.60;;
42614;SDS011;28754;47.700;7.924;2022-11-23T06:44:29;12.70;;;2.60;;
42614;SDS011;28754;47.700;7.924;2022-11-23T06:47:17;6.20;;;2.30;;
42614;SDS011;28754;47.700;7.924;2022-11-23T06:50:04;8.02;;;2.20;;
42614;SDS011;28754;47.700;7.924;2022-11-23T06:52:55;8.88;;;2.58;;
42614;SDS011;28754;47.700;7.924;2022-11-23T06:55:56;10.98;;;3.92;;
42614;SDS011;28754;47.700;7.924;2022-11-23T06:58:44;6.40;;;2.88;;
42614;SDS011;28754;47.700;7.924;2022-11-23T07:01:37;11.98;;;2.88;;
42614;SDS011;28754;47.700;7.924;2022-11-23T07:04:27;5.35;;;2.78;;
42614;SDS011;28754;47.700;7.924;2022-11-23T07:07:13;9.45;;;2.60;;
42614;SDS011;28754;47.700;7.924;2022-11-23T07:10:07;6.80;;;1.55;;
42614;SDS011;28754;47.700;7.924;2022-11-23T07:13:03;11.90;;;3.58;;
42614;SDS011;28754;47.700;7.924;2022-11-23T07:15:52;12.20;;;2.15;;
42614;SDS011;28754;47.700;7.924;2022-11-23T07:18:39;3.90;;;1.52;;
42614;SDS011;28754;47.700;7.924;2022-11-23T07:21:26;7.20;;;1.95;;
42614;SDS011;28754;47.700;7.924;2022-11-23T07:24:13;3.67;;;1.42;;
42614;SDS011;28754;47.700;7.924;2022-11-23T07:27:00;4.95;;;1.40;;
42614;SDS011;28754;47.700;7.924;2022-11-23T07:29:46;5.80;;;1.73;;
42614;SDS011;28754;47.700;7.924;2022-11-23T07:32:33;1.83;;;1.10;;
42614;SDS011;28754;47.700;7.924;2022-11-23T07:35:20;7.30;;;2.08;;
42614;SDS011;28754;47.700;7.924;2022-11-23T07:38:07;4.88;;;2.10;;
42614;SDS011;28754;47.700;7.924;2022-11-23T07:40:54;4.97;;;1.92;;
42614;SDS011;28754;47.700;7.924;2022-11-23T07:44:00;4.25;;;1.88;;
42614;SDS011;28754;47.700;7.924;2022-11-23T07:46:47;5.70;;;1.98;;
42614;SDS011;28754;47.700;7.924;2022-11-23T07:49:33;2.55;;;1.45;;
42614;SDS011;28754;47.700;7.924;2022-11-23T07:52:20;3.55;;;1.60;;
42614;SDS011;28754;47.700;7.924;2022-11-23T07:55:07;2.92;;;1.08;;
42614;SDS011;28754;47.700;7.924;2022-11-23T07:57:54;3.95;;;1.33;;
42614;SDS011;28754;47.700;7.924;2022-11-23T08:00:41;2.65;;;1.00;;
42614;SDS011;28754;47.700;7.924;2022-11-23T08:03:28;4.57;;;1.38;;
42614;SDS011;28754;47.700;7.924;2022-11-23T08:06:15;1.60;;;1.15;;
42614;SDS011;28754;47.700;7.924;2022-11-23T08:09:02;4.53;;;1.40;;
42614;SDS011;28754;47.700;7.924;2022-11-23T08:11:48;3.35;;;1.30;;
42614;SDS011;28754;47.700;7.924;2022-11-23T08:14:35;6.30;;;1.73;;
42614;SDS011;28754;47.700;7.924;2022-11-23T08:17:22;3.75;;;1.52;;
42614;SDS011;28754;47.700;7.924;2022-11-23T08:20:09;8.10;;;3.92;;
42614;SDS011;28754;47.700;7.924;2022-11-23T08:22:56;3.13;;;2.20;;
42614;SDS011;28754;47.700;7.924;2022-11-23T08:25:42;8.63;;;3.67;;
42614;SDS011;28754;47.700;7.924;2022-11-23T08:28:29;39.40;;;6.03;;
42614;SDS011;28754;47.700;7.924;2022-11-23T08:31:16;7.72;;;4.15;;
42614;SDS011;28754;47.700;7.924;2022-11-23T08:34:03;8.48;;;4.70;;
42614;SDS011;28754;47.700;7.924;2022-11-23T08:36:49;8.48;;;3.53;;
42614;SDS011;28754;47.700;7.924;2022-11-23T08:39:36;4.28;;;2.75;;
42614;SDS011;28754;47.700;7.924;2022-11-23T08:42:23;8.75;;;2.92;;
42614;SDS011;28754;47.700;7.924;2022-11-23T08:45:09;8.13;;;2.40;;
42614;SDS011;28754;47.700;7.924;2022-11-23T08:48:02;3.80;;;2.47;;
42614;SDS011;28754;47.700;7.924;2022-11-23T08:50:50;4.75;;;3.13;;
42614;SDS011;28754;47.700;7.924;2022-11-23T08:53:37;5.38;;;3.50;;
42614;SDS011;28754;47.700;7.924;2022-11-23T08:56:23;7.38;;;4.00;;
42614;SDS011;28754;47.700;7.924;2022-11-23T08:59:10;3.47;;;2.53;;
42614;SDS011;28754;47.700;7.924;2022-11-23T09:01:57;4.85;;;2.08;;
42614;SDS011;28754;47.700;7.924;2022-11-23T09:04:44;4.88;;;2.53;;
42614;SDS011;28754;47.700;7.924;2022-11-23T09:07:30;3.42;;;2.10;;
42614;SDS011;28754;47.700;7.924;2022-11-23T09:10:17;6.88;;;3.42;;
42614;SDS011;28754;47.700;7.924;2022-11-23T09:13:04;4.03;;;2.33;;
42614;SDS011;28754;47.700;7.924;2022-11-23T09:15:51;5.00;;;1.60;;
42614;SDS011;28754;47.700;7.924;2022-11-23T09:18:42;3.58;;;2.22;;
42614;SDS011;28754;47.700;7.924;2022-11-23T09:21:29;3.28;;;2.50;;
42614;SDS011;28754;47.700;7.924;2022-11-23T09:24:19;6.35;;;4.28;;
42614;SDS011;28754;47.700;7.924;2022-11-23T09:27:05;1.20;;;0.90;;
42614;SDS011;28754;47.700;7.924;2022-11-23T09:29:52;2.60;;;1.50;;
42614;SDS011;28754;47.700;7.924;2022-11-23T09:32:39;2.70;;;2.00;;
42614;SDS011;28754;47.700;7.924;2022-11-23T09:35:26;1.98;;;1.30;;
42614;SDS011;28754;47.700;7.924;2022-11-23T09:38:12;4.95;;;1.95;;
42614;SDS011;28754;47.700;7.924;2022-11-23T09:41:04;13.90;;;2.00;;
42614;SDS011;28754;47.700;7.924;2022-11-23T09:47:26;3.05;;;1.77;;
42614;SDS011;28754;47.700;7.924;2022-11-23T09:54:08;3.97;;;2.15;;
42614;SDS011;28754;47.700;7.924;2022-11-23T09:57:08;5.57;;;2.15;;
42614;SDS011;28754;47.700;7.924;2022-11-23T10:03:02;2.55;;;1.45;;
42614;SDS011;28754;47.700;7.924;2022-11-23T10:05:54;4.43;;;2.10;;
42614;SDS011;28754;47.700;7.924;2022-11-23T10:09:19;3.17;;;1.30;;
42614;SDS011;28754;47.700;7.924;2022-11-23T10:15:27;4.68;;;1.60;;
42614;SDS011;28754;47.700;7.924;2022-11-23T10:18:47;1.38;;;0.75;;
42614;SDS011;28754;47.700;7.924;2022-11-23T10:24:55;2.42;;;1.70;;
42614;SDS011;28754;47.700;7.924;2022-11-23T10:27:46;3.03;;;1.02;;
42614;SDS011;28754;47.700;7.924;2022-11-23T10:30:35;1.35;;;0.95;;
42614;SDS011;28754;47.700;7.924;2022-11-23T10:33:25;2.47;;;1.00;;
42614;SDS011;28754;47.700;7.924;2022-11-23T10:36:18;2.60;;;1.02;;
42614;SDS011;28754;47.700;7.924;2022-11-23T10:39:24;2.35;;;1.50;;
42614;SDS011;28754;47.700;7.924;2022-11-23T10:45:19;1.67;;;0.70;;
42614;SDS011;28754;47.700;7.924;2022-11-23T10:48:12;0.53;;;0.50;;
42614;SDS011;28754;47.700;7.924;2022-11-23T10:51:30;1.58;;;0.75;;
42614;SDS011;28754;47.700;7.924;2022-11-23T10:57:20;2.20;;;0.63;;
42614;SDS011;28754;47.700;7.924;2022-11-23T11:00:29;2.00;;;0.82;;
42614;SDS011;28754;47.700;7.924;2022-11-23T11:03:22;1.80;;;0.70;;
42614;SDS011;28754;47.700;7.924;2022-11-23T11:06:09;1.40;;;0.60;;
42614;SDS011;28754;47.700;7.924;2022-11-23T11:09:17;2.88;;;0.75;;
42614;SDS011;28754;47.700;7.924;2022-11-23T11:12:13;4.93;;;1.15;;
42614;SDS011;28754;47.700;7.924;2022-11-23T11:15:13;0.52;;;0.47;;
42614;SDS011;28754;47.700;7.924;2022-11-23T11:18:01;4.10;;;0.80;;
42614;SDS011;28754;47.700;7.924;2022-11-23T11:20:49;1.42;;;0.90;;
42614;SDS011;28754;47.700;7.924;2022-11-23T11:23:47;2.75;;;1.15;;
42614;SDS011;28754;47.700;7.924;2022-11-23T11:27:04;2.50;;;0.90;;
42614;SDS011;28754;47.700;7.924;2022-11-23T11:30:05;1.90;;;0.65;;
42614;SDS011;28754;47.700;7.924;2022-11-23T11:33:17;1.10;;;0.30;;
42614;SDS011;28754;47.700;7.924;2022-11-23T11:36:15;1.02;;;0.73;;
42614;SDS011;28754;47.700;7.924;2022-11-23T11:39:05;2.53;;;1.23;;
42614;SDS011;28754;47.700;7.924;2022-11-23T11:42:04;2.67;;;1.30;;
42614;SDS011;28754;47.700;7.924;2022-11-23T11:45:00;1.67;;;0.80;;
42614;SDS011;28754;47.700;7.924;2022-11-23T11:47:54;1.27;;;0.65;;
42614;SDS011;28754;47.700;7.924;2022-11-23T11:50:55;5.07;;;1.38;;
42614;SDS011;28754;47.700;7.924;2022-11-23T11:56:38;0.65;;;0.50;;
42614;SDS011;28754;47.700;7.924;2022-11-23T11:59:33;1.45;;;1.00;;
42614;SDS011;28754;47.700;7.924;2022-11-23T12:05:51;2.40;;;0.95;;
42614;SDS011;28754;47.700;7.924;2022-11-23T12:12:00;2.22;;;1.38;;
42614;SDS011;28754;47.700;7.924;2022-11-23T12:14:50;4.78;;;3.20;;
42614;SDS011;28754;47.700;7.924;2022-11-23T12:24:14;5.18;;;3.53;;
42614;SDS011;28754;47.700;7.924;2022-11-23T12:46:44;1.48;;;0.98;;
42614;SDS011;28754;47.700;7.924;2022-11-23T12:49:40;1.65;;;1.02;;
42614;SDS011;28754;47.700;7.924;2022-11-23T12:52:49;4.32;;;2.17;;
42614;SDS011;28754;47.700;7.924;2022-11-23T12:56:21;4.65;;;2.05;;
42614;SDS011;28754;47.700;7.924;2022-11-23T12:59:20;2.95;;;1.20;;
42614;SDS011;28754;47.700;7.924;2022-11-23T13:02:28;5.25;;;2.85;;
42614;SDS011;28754;47.700;7.924;2022-11-23T13:09:23;5.28;;;2.30;;
42614;SDS011;28754;47.700;7.924;2022-11-23T13:15:40;4.85;;;2.30;;
42614;SDS011;28754;47.700;7.924;2022-11-23T13:18:41;6.85;;;1.80;;
42614;SDS011;28754;47.700;7.924;2022-11-23T13:21:44;3.88;;;1.95;;
42614;SDS011;28754;47.700;7.924;2022-11-23T13:24:33;7.45;;;5.00;;
42614;SDS011;28754;47.700;7.924;2022-11-23T13:27:43;7.53;;;2.75;;
42614;SDS011;28754;47.700;7.924;2022-11-23T13:30:34;12.93;;;6.90;;
42614;SDS011;28754;47.700;7.924;2022-11-23T13:33:24;8.55;;;3.35;;
42614;SDS011;28754;47.700;7.924;2022-11-23T13:42:32;3.42;;;1.98;;
42614;SDS011;28754;47.700;7.924;2022-11-23T13:50:58;5.60;;;2.58;;
42614;SDS011;28754;47.700;7.924;2022-11-23T13:53:50;6.32;;;2.15;;
42614;SDS011;28754;47.700;7.924;2022-11-23T13:56:43;5.55;;;2.88;;
42614;SDS011;28754;47.700;7.924;2022-11-23T13:59:31;2.78;;;2.05;;
42614;SDS011;28754;47.700;7.924;2022-11-23T14:02:27;3.70;;;2.35;;
42614;SDS011;28754;47.700;7.924;2022-11-23T14:05:36;5.15;;;2.13;;
42614;SDS011;28754;47.700;7.924;2022-11-23T14:08:45;2.05;;;1.58;;
42614;SDS011;28754;47.700;7.924;2022-11-23T14:11:57;3.33;;;2.13;;
42614;SDS011;28754;47.700;7.924;2022-11-23T14:15:21;2.03;;;1.70;;
42614;SDS011;28754;47.700;7.924;2022-11-23T14:21:45;3.97;;;1.95;;
42614;SDS011;28754;47.700;7.924;2022-11-23T14:34:33;4.40;;;2.05;;
42614;SDS011;28754;47.700;7.924;2022-11-23T14:43:49;8.05;;;3.53;;
42614;SDS011;28754;47.700;7.924;2022-11-23T14:46:37;5.57;;;2.10;;
42614;SDS011;28754;47.700;7.924;2022-11-23T14:49:50;3.78;;;2.05;;
42614;SDS011;28754;47.700;7.924;2022-11-23T14:52:37;5.35;;;2.22;;
42614;SDS011;28754;47.700;7.924;2022-11-23T14:55:27;7.13;;;2.92;;
42614;SDS011;28754;47.700;7.924;2022-11-23T14:58:15;6.85;;;3.65;;
42614;SDS011;28754;47.700;7.924;2022-11-23T15:01:02;8.68;;;5.22;;
42614;SDS011;28754;47.700;7.924;2022-11-23T15:04:08;3.67;;;2.08;;
42614;SDS011;28754;47.700;7.924;2022-11-23T15:07:19;13.95;;;5.90;;
42614;SDS011;28754;47.700;7.924;2022-11-23T15:13:16;3.72;;;2.50;;
42614;SDS011;28754;47.700;7.924;2022-11-23T15:16:10;3.67;;;1.65;;
42614;SDS011;28754;47.700;7.924;2022-11-23T15:19:11;2.28;;;1.83;;
42614;SDS011;28754;47.700;7.924;2022-11-23T15:22:16;2.78;;;1.92;;
42614;SDS011;28754;47.700;7.924;2022-11-23T15:25:05;5.57;;;2.83;;
42614;SDS011;28754;47.700;7.924;2022-11-23T15:27:54;9.25;;;2.50;;
42614;SDS011;28754;47.700;7.924;2022-11-23T15:30:41;3.88;;;1.90;;
42614;SDS011;28754;47.700;7.924;2022-11-23T15:33:28;10.07;;;2.30;;
42614;SDS011;28754;47.700;7.924;2022-11-23T15:36:20;5.72;;;2.10;;
42614;SDS011;28754;47.700;7.924;2022-11-23T15:39:17;6.45;;;2.65;;
42614;SDS011;28754;47.700;7.924;2022-11-23T15:42:07;4.60;;;2.33;;
42614;SDS011;28754;47.700;7.924;2022-11-23T15:47:48;3.58;;;2.33;;
42614;SDS011;28754;47.700;7.924;2022-11-23T15:50:42;3.42;;;2.20;;
42614;SDS011;28754;47.700;7.924;2022-11-23T15:53:44;4.13;;;2.25;;
42614;SDS011;28754;47.700;7.924;2022-11-23T15:56:36;2.05;;;1.38;;
42614;SDS011;28754;47.700;7.924;2022-11-23T15:59:36;5.45;;;3.20;;
42614;SDS011;28754;47.700;7.924;2022-11-23T16:02:30;5.90;;;2.15;;
42614;SDS011;28754;47.700;7.924;2022-11-23T16:05:20;16.48;;;11.05;;
42614;SDS011;28754;47.700;7.924;2022-11-23T16:08:21;26.33;;;21.27;;
42614;SDS011;28754;47.700;7.924;2022-11-23T16:14:25;3.15;;;1.70;;
42614;SDS011;28754;47.700;7.924;2022-11-23T16:17:18;3.90;;;2.65;;
42614;SDS011;28754;47.700;7.924;2022-11-23T16:20:12;5.82;;;3.53;;
42614;SDS011;28754;47.700;7.924;2022-11-23T16:23:01;3.90;;;2.22;;
42614;SDS011;28754;47.700;7.924;2022-11-23T16:26:08;2.40;;;1.50;;
42614;SDS011;28754;47.700;7.924;2022-11-23T16:28:57;2.92;;;2.08;;
42614;SDS011;28754;47.700;7.924;2022-11-23T16:31:52;2.85;;;1.20;;
42614;SDS011;28754;47.700;7.924;2022-11-23T16:34:47;4.10;;;1.98;;
42614;SDS011;28754;47.700;7.924;2022-11-23T16:37:34;1.20;;;0.85;;
42614;SDS011;28754;47.700;7.924;2022-11-23T16:40:21;2.30;;;1.02;;
42614;SDS011;28754;47.700;7.924;2022-11-23T16:43:08;2.55;;;1.17;;
42614;SDS011;28754;47.700;7.924;2022-11-23T16:45:57;2.35;;;1.23;;
42614;SDS011;28754;47.700;7.924;2022-11-23T16:48:46;3.13;;;0.90;;
42614;SDS011;28754;47.700;7.924;2022-11-23T16:51:33;2.55;;;0.70;;
42614;SDS011;28754;47.700;7.924;2022-11-23T16:54:19;3.53;;;1.45;;
42614;SDS011;28754;47.700;7.924;2022-11-23T16:57:14;1.10;;;0.52;;
42614;SDS011;28754;47.700;7.924;2022-11-23T17:00:14;1.15;;;0.70;;
42614;SDS011;28754;47.700;7.924;2022-11-23T17:03:13;1.52;;;0.95;;
42614;SDS011;28754;47.700;7.924;2022-11-23T17:06:02;3.72;;;1.17;;
42614;SDS011;28754;47.700;7.924;2022-11-23T17:08:50;1.35;;;0.90;;
42614;SDS011;28754;47.700;7.924;2022-11-23T17:11:42;0.75;;;0.75;;
42614;SDS011;28754;47.700;7.924;2022-11-23T17:14:33;1.15;;;0.90;;
42614;SDS011;28754;47.700;7.924;2022-11-23T17:17:24;4.25;;;0.93;;
42614;SDS011;28754;47.700;7.924;2022-11-23T17:20:11;1.35;;;1.00;;
42614;SDS011;28754;47.700;7.924;2022-11-23T17:22:59;2.60;;;0.73;;
42614;SDS011;28754;47.700;7.924;2022-11-23T17:25:46;7.03;;;1.17;;
42614;SDS011;28754;47.700;7.924;2022-11-23T17:28:34;3.78;;;1.30;;
42614;SDS011;28754;47.700;7.924;2022-11-23T17:31:20;4.38;;;1.23;;
42614;SDS011;28754;47.700;7.924;2022-11-23T17:34:10;1.13;;;0.80;;
42614;SDS011;28754;47.700;7.924;2022-11-23T17:36:58;1.58;;;1.17;;
42614;SDS011;28754;47.700;7.924;2022-11-23T17:39:45;44.83;;;3.92;;
42614;SDS011;28754;47.700;7.924;2022-11-23T17:42:34;142.43;;;14.82;;
42614;SDS011;28754;47.700;7.924;2022-11-23T17:45:21;225.90;;;20.08;;
42614;SDS011;28754;47.700;7.924;2022-11-23T17:48:11;217.10;;;21.60;;
42614;SDS011;28754;47.700;7.924;2022-11-23T17:51:00;259.55;;;22.15;;
42614;SDS011;28754;47.700;7.924;2022-11-23T17:53:46;212.38;;;19.33;;
42614;SDS011;28754;47.700;7.924;2022-11-23T17:56:37;234.82;;;17.95;;
42614;SDS011;28754;47.700;7.924;2022-11-23T17:59:28;186.77;;;18.05;;
42614;SDS011;28754;47.700;7.924;2022-11-23T18:02:15;110.38;;;10.75;;
42614;SDS011;28754;47.700;7.924;2022-11-23T18:05:07;138.80;;;9.63;;
42614;SDS011;28754;47.700;7.924;2022-11-23T18:08:01;189.88;;;15.05;;
42614;SDS011;28754;47.700;7.924;2022-11-23T18:11:15;204.35;;;18.00;;
42614;SDS011;28754;47.700;7.924;2022-11-23T18:14:03;91.60;;;8.70;;
42614;SDS011;28754;47.700;7.924;2022-11-23T18:16:50;67.25;;;5.35;;
42614;SDS011;28754;47.700;7.924;2022-11-23T18:19:37;215.73;;;19.27;;
42614;SDS011;28754;47.700;7.924;2022-11-23T18:22:23;248.13;;;19.65;;
42614;SDS011;28754;47.700;7.924;2022-11-23T18:25:10;216.55;;;17.10;;
42614;SDS011;28754;47.700;7.924;2022-11-23T18:27:57;55.15;;;5.13;;
42614;SDS011;28754;47.700;7.924;2022-11-23T18:30:44;185.15;;;17.02;;
42614;SDS011;28754;47.700;7.924;2022-11-23T18:33:32;114.45;;;10.00;;
42614;SDS011;28754;47.700;7.924;2022-11-23T18:36:19;33.13;;;3.30;;
42614;SDS011;28754;47.700;7.924;2022-11-23T18:39:06;2.65;;;1.20;;
42614;SDS011;28754;47.700;7.924;2022-11-23T18:41:53;3.10;;;1.60;;
42614;SDS011;28754;47.700;7.924;2022-11-23T18:44:40;3.17;;;1.50;;
42614;SDS011;28754;47.700;7.924;2022-11-23T18:47:26;2.42;;;1.30;;
42614;SDS011;28754;47.700;7.924;2022-11-23T18:50:13;2.20;;;1.63;;
42614;SDS011;28754;47.700;7.924;2022-11-23T18:53:00;1.63;;;1.00;;
42614;SDS011;28754;47.700;7.924;2022-11-23T18:55:47;5.90;;;1.77;;
42614;SDS011;28754;47.700;7.924;2022-11-23T18:58:35;3.90;;;0.82;;
42614;SDS011;28754;47.700;7.924;2022-11-23T19:01:25;5.82;;;1.90;;
42614;SDS011;28754;47.700;7.924;2022-11-23T19:04:11;5.22;;;1.52;;
42614;SDS011;28754;47.700;7.924;2022-11-23T19:06:58;5.72;;;1.70;;
42614;SDS011;28754;47.700;7.924;2022-11-23T19:09:45;5.22;;;1.80;;